Time;durP1;ratioP1;P1;durP2;ratioP2;P2;SDS_P1;SDS_P2;PMS_P1;PMS_P2;Temp;Humidity;BMP_temperature;BMP_pressure;BME280_temperature;BME280_humidity;BME280_pressure;Samples;Min_cycle;Max_cycle;Signal;HPM_P1;HPM_P2
2022/09/01 00:02:29;;;;;;;3.50;3.00;;;;;;;;;;5039248;28;20049;-86
2022/09/01 00:04:57;;;;;;;3.70;3.40;;;;;;;;;;5039020;28;20477;-86
2022/09/01 00:07:26;;;;;;;4.68;3.03;;;;;;;;;;5056506;28;20045;-86
2022/09/01 00:09:53;;;;;;;5.35;3.20;;;;;;;;;;5038698;28;20073;-86
2022/09/01 00:12:21;;;;;;;3.65;2.75;;;;;;;;;;5038900;28;20077;-86
2022/09/01 00:14:48;;;;;;;4.70;2.88;;;;;;;;;;5038697;28;20045;-86
2022/09/01 00:17:15;;;;;;;4.63;3.10;;;;;;;;;;5038643;28;20084;-86
2022/09/01 00:19:43;;;;;;;3.47;3.20;;;;;;;;;;5038895;28;20069;-86
2022/09/01 00:22:10;;;;;;;3.28;2.97;;;;;;;;;;5038747;28;20057;-86
2022/09/01 00:24:37;;;;;;;3.40;3.20;;;;;;;;;;5056195;28;20485;-86
2022/09/01 00:27:05;;;;;;;3.50;3.20;;;;;;;;;;5038408;28;20072;-86
2022/09/01 00:29:32;;;;;;;4.20;3.35;;;;;;;;;;5038746;28;20135;-86
2022/09/01 00:31:59;;;;;;;4.03;3.65;;;;;;;;;;5038375;28;20142;-86
2022/09/01 00:34:26;;;;;;;3.63;3.33;;;;;;;;;;5038020;28;20171;-86
2022/09/01 00:36:53;;;;;;;4.00;3.53;;;;;;;;;;5055724;28;20052;-86
2022/09/01 00:39:20;;;;;;;3.60;3.35;;;;;;;;;;5038249;28;20076;-86
2022/09/01 00:41:49;;;;;;;4.28;4.00;;;;;;;;;;5038389;28;20079;-86
2022/09/01 00:44:18;;;;;;;3.72;3.28;;;;;;;;;;5038071;28;20493;-86
2022/09/01 00:46:48;;;;;;;8.73;3.85;;;;;;;;;;5055655;28;20120;-86
2022/09/01 00:49:27;;;;;;;4.88;3.70;;;;;;;;;;5055577;28;20060;-86
2022/09/01 00:52:18;;;;;;;5.72;3.85;;;;;;;;;;5038198;28;20095;-87
2022/09/01 00:54:48;;;;;;;4.47;3.85;;;;;;;;;;5037961;28;20081;-86
2022/09/01 00:57:16;;;;;;;7.22;4.35;;;;;;;;;;5037642;28;20390;-86
2022/09/01 00:59:46;;;;;;;5.38;4.53;;;;;;;;;;5037877;28;20136;-87
2022/09/01 01:02:13;;;;;;;5.47;4.03;;;;;;;;;;5055452;28;20535;-87
2022/09/01 01:04:42;;;;;;;5.53;4.30;;;;;;;;;;5037817;28;20078;-87
2022/09/01 01:07:10;;;;;;;5.07;3.95;;;;;;;;;;5038036;28;20049;-86
2022/09/01 01:09:39;;;;;;;9.23;4.68;;;;;;;;;;5037750;28;20132;-87
2022/09/01 01:12:10;;;;;;;6.15;3.85;;;;;;;;;;5055015;28;20131;-87
2022/09/01 01:14:38;;;;;;;7.93;4.65;;;;;;;;;;5037934;28;20065;-86
2022/09/01 01:17:06;;;;;;;4.65;4.22;;;;;;;;;;5037346;28;20106;-87
2022/09/01 01:25:11;;;;;;;6.05;5.22;;;;;;;;;;5055015;28;20049;-86
2022/09/01 01:27:42;;;;;;;5.03;4.65;;;;;;;;;;5055200;28;20055;-87
2022/09/01 01:30:11;;;;;;;5.00;4.60;;;;;;;;;;5054962;28;20080;-87
2022/09/01 01:32:42;;;;;;;7.10;5.22;;;;;;;;;;5054951;28;20069;-86
2022/09/01 01:35:13;;;;;;;5.47;5.05;;;;;;;;;;5037019;28;20103;-87
2022/09/01 01:37:45;;;;;;;7.40;5.03;;;;;;;;;;5037155;28;20037;-86
2022/09/01 01:40:14;;;;;;;6.20;4.60;;;;;;;;;;5037300;28;20060;-87
2022/09/01 01:42:46;;;;;;;5.45;4.85;;;;;;;;;;5037359;28;20059;-86
2022/09/01 01:45:16;;;;;;;4.72;4.32;;;;;;;;;;5036817;28;20099;-87
2022/09/01 01:47:50;;;;;;;6.47;4.72;;;;;;;;;;5036828;28;20140;-86
2022/09/01 01:50:17;;;;;;;7.00;4.10;;;;;;;;;;5036529;28;20095;-87
2022/09/01 01:52:44;;;;;;;5.43;4.97;;;;;;;;;;5037030;28;20079;-86
2022/09/01 01:55:12;;;;;;;5.60;4.07;;;;;;;;;;5054305;28;20083;-86
2022/09/01 01:57:48;;;;;;;5.05;4.55;;;;;;;;;;5036901;28;20148;-87
2022/09/01 02:00:20;;;;;;;4.75;4.40;;;;;;;;;;5036944;28;20459;-87
2022/09/01 02:02:56;;;;;;;7.28;4.97;;;;;;;;;;5037873;28;20061;-87
2022/09/01 02:05:26;;;;;;;4.82;4.43;;;;;;;;;;5036795;28;20095;-87
2022/09/01 02:07:58;;;;;;;4.70;4.38;;;;;;;;;;5036937;28;20114;-86
2022/09/01 02:10:28;;;;;;;7.88;4.82;;;;;;;;;;5036106;28;20045;-87
2022/09/01 02:12:56;;;;;;;7.72;5.07;;;;;;;;;;5054142;28;20140;-87
2022/09/01 02:15:24;;;;;;;6.15;5.50;;;;;;;;;;5054176;28;20053;-87
2022/09/01 02:17:52;;;;;;;5.95;5.00;;;;;;;;;;5032983;28;20145;-87
2022/09/01 02:20:21;;;;;;;5.53;4.40;;;;;;;;;;5033097;28;20077;-87
2022/09/01 02:22:50;;;;;;;6.38;5.32;;;;;;;;;;5034106;28;20089;-86
2022/09/01 02:25:19;;;;;;;8.98;5.53;;;;;;;;;;5033797;28;20077;-87
2022/09/01 02:27:54;;;;;;;5.53;5.03;;;;;;;;;;5032914;28;20049;-87
2022/09/01 02:30:25;;;;;;;5.60;5.10;;;;;;;;;;5032865;28;20136;-87
2022/09/01 02:32:52;;;;;;;5.93;5.43;;;;;;;;;;5034067;28;20051;-87
2022/09/01 02:35:19;;;;;;;5.95;5.40;;;;;;;;;;5032925;28;20077;-86
2022/09/01 02:37:50;;;;;;;7.18;5.43;;;;;;;;;;5032668;28;20139;-87
2022/09/01 02:40:17;;;;;;;5.70;5.20;;;;;;;;;;5032701;28;20505;-87
2022/09/01 02:42:46;;;;;;;6.28;5.68;;;;;;;;;;5032847;28;20104;-86
2022/09/01 02:45:15;;;;;;;6.30;5.57;;;;;;;;;;5032745;28;20060;-87
2022/09/01 02:47:45;;;;;;;5.80;5.32;;;;;;;;;;5032609;28;20494;-86
2022/09/01 02:50:15;;;;;;;8.32;6.10;;;;;;;;;;5032513;28;20045;-87
2022/09/01 02:52:43;;;;;;;10.23;6.20;;;;;;;;;;5032508;28;20409;-87
2022/09/01 02:55:11;;;;;;;6.00;5.25;;;;;;;;;;5032680;28;20486;-87
2022/09/01 02:57:38;;;;;;;6.57;5.35;;;;;;;;;;5032549;28;20096;-87
2022/09/01 03:00:19;;;;;;;6.38;5.38;;;;;;;;;;5032632;28;20140;-87
2022/09/01 03:02:50;;;;;;;8.30;6.05;;;;;;;;;;5033702;28;20413;-87
2022/09/01 03:05:24;;;;;;;6.22;5.70;;;;;;;;;;5033611;28;20081;-86
2022/09/01 03:07:55;;;;;;;6.38;5.53;;;;;;;;;;5032755;28;20081;-87
2022/09/01 03:10:35;;;;;;;7.00;5.72;;;;;;;;;;5033704;28;20132;-86
2022/09/01 03:13:03;;;;;;;7.43;5.55;;;;;;;;;;5032437;28;20140;-87
2022/09/01 03:15:32;;;;;;;5.90;5.47;;;;;;;;;;5033596;28;20049;-87
2022/09/01 03:18:01;;;;;;;5.72;5.20;;;;;;;;;;5032487;28;20053;-87
2022/09/01 03:20:30;;;;;;;5.72;5.07;;;;;;;;;;5034366;28;20088;-87
2022/09/01 03:22:58;;;;;;;7.68;5.22;;;;;;;;;;5036462;28;20528;-87
2022/09/01 03:25:27;;;;;;;7.80;6.05;;;;;;;;;;5036298;28;20073;-87
2022/09/01 03:27:54;;;;;;;5.68;5.18;;;;;;;;;;5036617;28;20081;-87
2022/09/01 03:30:22;;;;;;;7.03;6.20;;;;;;;;;;5036479;28;20092;-87
2022/09/01 03:32:49;;;;;;;5.93;5.53;;;;;;;;;;5036072;28;20136;-87
2022/09/01 03:35:16;;;;;;;6.25;5.68;;;;;;;;;;5036348;28;20109;-87
2022/09/01 03:37:44;;;;;;;6.88;5.75;;;;;;;;;;5036349;28;20140;-87
2022/09/01 03:40:12;;;;;;;5.35;4.93;;;;;;;;;;5036054;28;20124;-87
2022/09/01 03:42:39;;;;;;;15.60;6.07;;;;;;;;;;5036185;28;20057;-87
2022/09/01 03:45:08;;;;;;;5.40;5.00;;;;;;;;;;5036108;28;20049;-88
2022/09/01 03:47:38;;;;;;;9.18;5.70;;;;;;;;;;5036202;28;20084;-87
2022/09/01 03:50:20;;;;;;;10.02;5.43;;;;;;;;;;5036203;28;20045;-86
2022/09/01 03:52:53;;;;;;;6.88;5.88;;;;;;;;;;5035766;28;20141;-87
2022/09/01 03:55:26;;;;;;;16.92;14.38;;;;;;;;;;5036070;28;20080;-87
2022/09/01 03:57:54;;;;;;;12.40;10.55;;;;;;;;;;5035905;28;20501;-87
2022/09/01 04:00:22;;;;;;;10.23;9.02;;;;;;;;;;5035868;28;20161;-87
2022/09/01 04:02:51;;;;;;;8.70;7.85;;;;;;;;;;5035665;28;20109;-87
2022/09/01 04:05:23;;;;;;;8.65;7.82;;;;;;;;;;5035664;28;20049;-87
2022/09/01 04:07:51;;;;;;;8.65;7.80;;;;;;;;;;5035659;28;20053;-86
2022/09/01 04:10:18;;;;;;;9.95;9.02;;;;;;;;;;5035566;28;20137;-86
2022/09/01 04:12:45;;;;;;;9.57;8.68;;;;;;;;;;5035103;28;20478;-87
2022/09/01 04:15:13;;;;;;;8.13;7.30;;;;;;;;;;5036425;28;20303;-87
2022/09/01 04:20:27;;;;;;;7.18;6.57;;;;;;;;;;5036502;28;20050;-87
2022/09/01 04:22:56;;;;;;;10.38;6.45;;;;;;;;;;5035449;28;20145;-87
2022/09/01 04:25:25;;;;;;;6.60;6.07;;;;;;;;;;5035446;28;20082;-87
2022/09/01 04:27:57;;;;;;;11.65;7.53;;;;;;;;;;5036298;28;20056;-87
2022/09/01 04:30:28;;;;;;;7.55;6.35;;;;;;;;;;5035210;28;20071;-86
2022/09/01 04:32:55;;;;;;;10.45;6.50;;;;;;;;;;5033923;28;20136;-87
2022/09/01 04:35:31;;;;;;;10.23;6.90;;;;;;;;;;5034997;28;20041;-87
2022/09/01 04:38:07;;;;;;;12.18;7.40;;;;;;;;;;5034919;28;20072;-87
2022/09/01 04:40:38;;;;;;;8.27;7.25;;;;;;;;;;5034990;28;20144;-87
2022/09/01 04:43:06;;;;;;;7.78;7.05;;;;;;;;;;5034883;28;20548;-87
2022/09/01 04:45:36;;;;;;;7.28;6.68;;;;;;;;;;5034857;28;20627;-86
2022/09/01 04:48:04;;;;;;;6.40;5.90;;;;;;;;;;5035784;28;20080;-86
2022/09/01 04:50:33;;;;;;;7.82;7.05;;;;;;;;;;5034854;28;20108;-87
2022/09/01 04:53:02;;;;;;;8.00;7.20;;;;;;;;;;5034545;28;20080;-87
2022/09/01 04:55:29;;;;;;;10.02;7.13;;;;;;;;;;5034758;28;20133;-87
2022/09/01 04:58:02;;;;;;;7.47;6.78;;;;;;;;;;5034746;28;20057;-87
2022/09/01 05:00:37;;;;;;;7.10;6.50;;;;;;;;;;5034981;28;20057;-87
2022/09/01 05:03:04;;;;;;;7.90;7.10;;;;;;;;;;5034726;28;20045;-86
2022/09/01 05:05:41;;;;;;;10.13;6.93;;;;;;;;;;5034620;28;20069;-87
2022/09/01 05:08:14;;;;;;;6.68;5.93;;;;;;;;;;5034461;28;20064;-87
2022/09/01 05:10:54;;;;;;;7.43;6.82;;;;;;;;;;5034656;28;20057;-87
2022/09/01 05:13:22;;;;;;;8.27;7.45;;;;;;;;;;5035349;28;20049;-88
2022/09/01 05:16:00;;;;;;;9.20;8.02;;;;;;;;;;5034236;28;20055;-87
2022/09/01 05:18:28;;;;;;;9.23;8.43;;;;;;;;;;5034499;28;20049;-87
2022/09/01 05:20:56;;;;;;;9.40;8.68;;;;;;;;;;5034385;28;20136;-87
2022/09/01 05:23:25;;;;;;;12.32;10.70;;;;;;;;;;5034245;28;20489;-87
2022/09/01 05:25:53;;;;;;;10.70;9.70;;;;;;;;;;5034120;28;20498;-86
2022/09/01 05:28:25;;;;;;;12.20;9.02;;;;;;;;;;5034268;28;20084;-88
2022/09/01 05:30:53;;;;;;;10.65;9.57;;;;;;;;;;5034220;28;20057;-88
2022/09/01 05:33:20;;;;;;;17.50;11.60;;;;;;;;;;5034141;28;20095;-88
2022/09/01 05:35:54;;;;;;;21.38;14.93;;;;;;;;;;5034182;28;20132;-88
2022/09/01 05:38:23;;;;;;;64.25;40.10;;;;;;;;;;5034481;28;20434;-88
2022/09/01 05:41:05;;;;;;;47.80;35.17;;;;;;;;;;5034088;28;20402;-87
2022/09/01 05:43:33;;;;;;;51.33;38.63;;;;;;;;;;5034183;28;20100;-88
2022/09/01 05:46:00;;;;;;;31.45;27.67;;;;;;;;;;5034163;28;20073;-88
2022/09/01 05:48:38;;;;;;;36.88;28.90;;;;;;;;;;5034218;28;20049;-87
2022/09/01 05:51:06;;;;;;;30.55;26.98;;;;;;;;;;5033933;28;20053;-87
2022/09/01 05:53:54;;;;;;;15.88;13.95;;;;;;;;;;5033723;28;20057;-88
2022/09/01 05:56:22;;;;;;;12.45;10.40;;;;;;;;;;5034048;28;20438;-88
2022/09/01 05:58:50;;;;;;;9.80;8.85;;;;;;;;;;5033811;28;20083;-88
2022/09/01 06:01:39;;;;;;;6.80;6.30;;;;;;;;;;5033500;28;20417;-88
2022/09/01 06:04:08;;;;;;;6.70;6.05;;;;;;;;;;5033900;28;20045;-87
2022/09/01 06:06:48;;;;;;;7.65;6.57;;;;;;;;;;5033681;28;20041;-88
2022/09/01 06:09:37;;;;;;;10.85;9.27;;;;;;;;;;5033788;28;20053;-88
2022/09/01 06:12:04;;;;;;;13.13;11.93;;;;;;;;;;5033747;28;20060;-88
2022/09/01 06:14:31;;;;;;;10.52;9.60;;;;;;;;;;5033810;28;20049;-88
2022/09/01 06:16:59;;;;;;;10.70;9.80;;;;;;;;;;5033525;28;20084;-88
2022/09/01 06:19:27;;;;;;;8.40;7.47;;;;;;;;;;5033794;28;20053;-88
2022/09/01 06:21:57;;;;;;;9.00;7.65;;;;;;;;;;5033621;28;20058;-88
2022/09/01 06:24:24;;;;;;;7.13;6.53;;;;;;;;;;5033325;28;20142;-88
2022/09/01 06:26:53;;;;;;;7.45;5.93;;;;;;;;;;5033493;28;20049;-88
2022/09/01 06:29:21;;;;;;;16.48;6.65;;;;;;;;;;5033542;28;20073;-88
2022/09/01 06:31:51;;;;;;;8.85;6.43;;;;;;;;;;5033146;28;20555;-88
2022/09/01 06:34:19;;;;;;;7.95;5.60;;;;;;;;;;5033476;28;20049;-86
2022/09/01 06:36:48;;;;;;;9.25;5.88;;;;;;;;;;5033303;28;20050;-88
2022/09/01 06:39:19;;;;;;;13.80;5.45;;;;;;;;;;5033052;28;20060;-88
2022/09/01 06:41:51;;;;;;;5.28;4.78;;;;;;;;;;5033011;28;20432;-87
2022/09/01 06:44:21;;;;;;;9.13;4.38;;;;;;;;;;5033008;28;20045;-87
2022/09/01 06:46:50;;;;;;;9.52;4.50;;;;;;;;;;5033260;28;20077;-87
2022/09/01 06:49:20;;;;;;;10.80;4.35;;;;;;;;;;5032858;28;20045;-88
2022/09/01 06:51:48;;;;;;;8.57;3.92;;;;;;;;;;5032605;28;20049;-87
2022/09/01 06:54:16;;;;;;;5.68;3.78;;;;;;;;;;5032337;28;20053;-88
2022/09/01 06:56:47;;;;;;;9.30;4.57;;;;;;;;;;5032399;28;20056;-87
2022/09/01 06:59:34;;;;;;;7.13;3.42;;;;;;;;;;5032872;28;20056;-87
2022/09/01 07:02:02;;;;;;;4.75;3.05;;;;;;;;;;5032487;28;20045;-87
2022/09/01 07:04:31;;;;;;;4.10;3.53;;;;;;;;;;5032562;28;20057;-87
2022/09/01 07:07:03;;;;;;;4.82;3.67;;;;;;;;;;5032653;28;20129;-88
2022/09/01 07:09:50;;;;;;;11.93;3.70;;;;;;;;;;5032591;28;20050;-87
2022/09/01 07:12:40;;;;;;;9.40;3.47;;;;;;;;;;5032432;28;20049;-87
2022/09/01 07:15:28;;;;;;;7.80;3.55;;;;;;;;;;5032470;28;20410;-87
2022/09/01 07:18:16;;;;;;;11.63;3.30;;;;;;;;;;5032241;28;20161;-87
2022/09/01 07:20:46;;;;;;;15.07;4.13;;;;;;;;;;5032104;28;20053;-87
2022/09/01 07:23:33;;;;;;;15.50;4.38;;;;;;;;;;5032653;28;20152;-87
2022/09/01 07:26:23;;;;;;;12.30;3.53;;;;;;;;;;5032314;28;20045;-87
2022/09/01 07:28:52;;;;;;;7.65;3.63;;;;;;;;;;5032252;28;20092;-87
2022/09/01 07:31:29;;;;;;;8.98;3.03;;;;;;;;;;5032402;28;20049;-86
2022/09/01 07:34:16;;;;;;;6.75;2.83;;;;;;;;;;5032050;28;20485;-86
2022/09/01 07:37:03;;;;;;;5.03;2.90;;;;;;;;;;5031946;28;20539;-86
2022/09/01 07:39:50;;;;;;;5.43;2.67;;;;;;;;;;5031876;28;20054;-86
2022/09/01 07:42:18;;;;;;;4.38;2.80;;;;;;;;;;5031926;28;20049;-86
2022/09/01 07:45:09;;;;;;;7.85;2.83;;;;;;;;;;5031994;28;20068;-86
2022/09/01 07:47:54;;;;;;;6.25;2.90;;;;;;;;;;5032103;28;20111;-86
2022/09/01 07:50:27;;;;;;;7.72;2.60;;;;;;;;;;5032799;28;20481;-87
2022/09/01 07:53:18;;;;;;;4.53;2.50;;;;;;;;;;5031981;28;20053;-86
2022/09/01 07:55:48;;;;;;;7.13;2.53;;;;;;;;;;5032028;28;20045;-87
2022/09/01 07:58:16;;;;;;;3.45;2.45;;;;;;;;;;5031987;28;20073;-86
2022/09/01 08:00:45;;;;;;;5.07;2.15;;;;;;;;;;5031759;28;20084;-87
2022/09/01 08:03:16;;;;;;;6.72;2.97;;;;;;;;;;5031822;28;20077;-87
2022/09/01 08:05:44;;;;;;;3.80;2.60;;;;;;;;;;5031857;28;20159;-86
2022/09/01 08:08:11;;;;;;;5.85;2.33;;;;;;;;;;5034306;28;20085;-86
2022/09/01 08:10:55;;;;;;;4.63;2.72;;;;;;;;;;5035651;28;20057;-86
2022/09/01 08:13:31;;;;;;;3.85;3.20;;;;;;;;;;5035177;28;20053;-86
2022/09/01 08:16:07;;;;;;;3.17;2.95;;;;;;;;;;5036767;28;20057;-87
2022/09/01 08:18:43;;;;;;;4.00;3.10;;;;;;;;;;5040247;28;20057;-86
2022/09/01 08:21:16;;;;;;;3.92;3.10;;;;;;;;;;5039232;28;20060;-87
2022/09/01 08:23:43;;;;;;;3.97;2.60;;;;;;;;;;5038658;28;20080;-86
2022/09/01 08:26:12;;;;;;;2.80;2.63;;;;;;;;;;5038740;28;20049;-87
2022/09/01 08:28:39;;;;;;;6.47;2.78;;;;;;;;;;5038844;28;20136;-88
2022/09/01 08:31:13;;;;;;;2.42;2.30;;;;;;;;;;5039416;28;20053;-87
2022/09/01 08:33:41;;;;;;;3.17;2.00;;;;;;;;;;5038865;28;20416;-87
2022/09/01 08:36:09;;;;;;;9.52;2.53;;;;;;;;;;5038620;28;20475;-88
2022/09/01 08:38:39;;;;;;;20.10;2.45;;;;;;;;;;5038821;28;20501;-87
2022/09/01 08:41:32;;;;;;;8.05;2.30;;;;;;;;;;5038434;28;20449;-87
2022/09/01 08:44:14;;;;;;;3.08;1.88;;;;;;;;;;5038695;28;20098;-87
2022/09/01 08:46:42;;;;;;;4.55;1.20;;;;;;;;;;5038449;28;20494;-87
2022/09/01 08:49:20;;;;;;;3.42;1.85;;;;;;;;;;5038386;28;20051;-87
2022/09/01 08:52:15;;;;;;;3.72;1.70;;;;;;;;;;5039404;28;20490;-87
2022/09/01 08:54:51;;;;;;;1.35;1.15;;;;;;;;;;5037976;28;20049;-86
2022/09/01 08:57:46;;;;;;;8.45;1.58;;;;;;;;;;5038138;28;20520;-87
2022/09/01 09:00:14;;;;;;;2.05;1.40;;;;;;;;;;5035560;28;20073;-87
2022/09/01 09:02:50;;;;;;;1.55;1.40;;;;;;;;;;5038071;28;20521;-86
2022/09/01 09:05:30;;;;;;;2.80;1.10;;;;;;;;;;5037700;28;20049;-87
2022/09/01 09:08:06;;;;;;;2.25;1.27;;;;;;;;;;5037799;28;20049;-86
2022/09/01 09:10:52;;;;;;;3.40;1.13;;;;;;;;;;5037732;28;20053;-86
2022/09/01 09:13:29;;;;;;;3.60;1.15;;;;;;;;;;5037654;28;20057;-88
2022/09/01 09:16:22;;;;;;;2.15;1.40;;;;;;;;;;5037338;28;20148;-87
2022/09/01 09:18:56;;;;;;;1.85;1.15;;;;;;;;;;5033677;28;20049;-84
2022/09/01 09:21:29;;;;;;;3.92;1.25;;;;;;;;;;5054819;28;20103;-88
2022/09/01 09:24:04;;;;;;;2.13;1.87;;;;;;;;;;5037163;28;20049;-87
2022/09/01 09:26:31;;;;;;;5.18;1.70;;;;;;;;;;5036894;28;20111;-85
2022/09/01 09:29:13;;;;;;;2.20;1.25;;;;;;;;;;5054789;28;20075;-86
2022/09/01 09:31:47;;;;;;;2.58;1.30;;;;;;;;;;5036893;28;20516;-86
2022/09/01 09:34:35;;;;;;;2.88;1.60;;;;;;;;;;5036813;28;20496;-85
2022/09/01 09:37:21;;;;;;;4.60;2.33;;;;;;;;;;5036821;28;20095;-86
2022/09/01 09:40:06;;;;;;;3.08;1.70;;;;;;;;;;5036975;28;20079;-86
2022/09/01 09:42:40;;;;;;;7.03;1.50;;;;;;;;;;5037089;28;20115;-87
2022/09/01 09:45:40;;;;;;;2.45;1.60;;;;;;;;;;5036960;28;20156;-87
2022/09/01 09:48:28;;;;;;;3.70;1.88;;;;;;;;;;4995276;28;20079;-86
2022/09/01 09:50:55;;;;;;;4.40;2.10;;;;;;;;;;5036781;28;20492;-87
2022/09/01 09:53:28;;;;;;;3.80;1.42;;;;;;;;;;5036560;28;20069;-84
2022/09/01 09:55:55;;;;;;;2.97;1.73;;;;;;;;;;5036544;28;20497;-88
2022/09/01 09:58:26;;;;;;;1.58;1.40;;;;;;;;;;5036522;28;20072;-87
2022/09/01 10:01:01;;;;;;;1.98;1.50;;;;;;;;;;5036614;28;20140;-86
2022/09/01 10:03:36;;;;;;;7.85;1.80;;;;;;;;;;5036875;28;20131;-87
2022/09/01 10:06:03;;;;;;;1.97;1.60;;;;;;;;;;5036156;28;20110;-88
2022/09/01 10:08:43;;;;;;;3.95;1.70;;;;;;;;;;5036664;28;20049;-87
2022/09/01 10:11:24;;;;;;;2.55;1.50;;;;;;;;;;5036405;28;20053;-86
2022/09/01 10:14:01;;;;;;;5.70;1.65;;;;;;;;;;5037271;28;20103;-87
2022/09/01 10:16:30;;;;;;;2.00;1.30;;;;;;;;;;5032526;28;20057;-87
2022/09/01 10:19:00;;;;;;;2.92;1.38;;;;;;;;;;5032952;28;20092;-86
2022/09/01 10:21:38;;;;;;;3.47;1.30;;;;;;;;;;5032753;28;20092;-86
2022/09/01 10:24:26;;;;;;;3.35;1.38;;;;;;;;;;5032276;28;20080;-86
2022/09/01 10:26:59;;;;;;;4.40;1.35;;;;;;;;;;5026676;28;20045;-87
2022/09/01 10:29:31;;;;;;;4.05;1.20;;;;;;;;;;5032089;28;20065;-86
2022/09/01 10:32:08;;;;;;;5.57;1.08;;;;;;;;;;5032830;28;20053;-86
2022/09/01 10:34:56;;;;;;;1.98;1.10;;;;;;;;;;5032280;28;20050;-85
2022/09/01 10:37:25;;;;;;;2.35;1.00;;;;;;;;;;5032345;28;20505;-85
2022/09/01 10:40:11;;;;;;;1.65;0.90;;;;;;;;;;5032401;28;20056;-86
2022/09/01 10:42:43;;;;;;;3.50;0.90;;;;;;;;;;5032294;28;20080;-86
2022/09/01 10:45:39;;;;;;;2.67;0.97;;;;;;;;;;5032355;28;20060;-86
2022/09/01 10:48:22;;;;;;;2.13;0.77;;;;;;;;;;5032049;28;20120;-87
2022/09/01 10:51:13;;;;;;;2.75;0.90;;;;;;;;;;5032561;28;20509;-87
2022/09/01 10:53:45;;;;;;;1.13;0.65;;;;;;;;;;5032473;28;20045;-87
2022/09/01 10:56:16;;;;;;;3.30;0.90;;;;;;;;;;5032083;28;20065;-86
2022/09/01 10:59:23;;;;;;;2.83;0.70;;;;;;;;;;5032565;28;20136;-87
2022/09/01 11:02:03;;;;;;;2.05;1.10;;;;;;;;;;5032487;28;20141;-86
2022/09/01 11:04:50;;;;;;;2.45;0.80;;;;;;;;;;5033103;28;20049;-86
2022/09/01 11:07:17;;;;;;;1.30;0.77;;;;;;;;;;5032233;28;20068;-85
2022/09/01 11:10:23;;;;;;;1.75;0.88;;;;;;;;;;5032245;28;20049;-83
2022/09/01 11:13:04;;;;;;;3.80;0.63;;;;;;;;;;5032254;28;20457;-89
2022/09/01 11:15:32;;;;;;;;;;;;;;;;;;5032718;28;20083;-89
2022/09/01 11:17:59;;;;;;;2.17;0.70;;;;;;;;;;5031918;28;19921;-87
2022/09/01 11:20:27;;;;;;;3.15;0.52;;;;;;;;;;5031957;28;20504;-88
2022/09/01 11:23:04;;;;;;;0.52;0.52;;;;;;;;;;5032035;28;20054;-87
2022/09/01 11:25:37;;;;;;;1.60;0.55;;;;;;;;;;5032384;28;20049;-87
2022/09/01 11:28:07;;;;;;;1.05;0.63;;;;;;;;;;5032199;28;20502;-89
2022/09/01 11:30:53;;;;;;;1.17;0.60;;;;;;;;;;5032486;28;20063;-86
2022/09/01 11:33:33;;;;;;;1.85;0.50;;;;;;;;;;5031889;28;20072;-86
2022/09/01 11:36:05;;;;;;;0.70;0.70;;;;;;;;;;5031927;28;20095;-89
2022/09/01 11:38:50;;;;;;;2.15;0.95;;;;;;;;;;5032294;28;20049;-88
2022/09/01 11:41:25;;;;;;;2.22;0.70;;;;;;;;;;5033155;28;20516;-86
2022/09/01 11:43:54;;;;;;;1.00;0.63;;;;;;;;;;5035962;28;20532;-84
2022/09/01 11:46:22;;;;;;;1.75;0.63;;;;;;;;;;5035974;28;20080;-85
2022/09/01 11:48:50;;;;;;;1.38;0.55;;;;;;;;;;5035883;28;20055;-88
2022/09/01 11:51:20;;;;;;;2.03;0.80;;;;;;;;;;5035837;28;20053;-86
2022/09/01 11:53:47;;;;;;;1.83;0.80;;;;;;;;;;5035735;28;20088;-87
2022/09/01 11:56:19;;;;;;;1.75;0.68;;;;;;;;;;5035669;28;20099;-86
2022/09/01 11:58:46;;;;;;;0.50;0.50;;;;;;;;;;5035777;28;20084;-88
2022/09/01 12:01:20;;;;;;;1.38;0.40;;;;;;;;;;5035392;28;20095;-87
2022/09/01 12:03:50;;;;;;;3.15;0.50;;;;;;;;;;5035762;28;20197;-88
2022/09/01 12:06:20;;;;;;;2.47;0.77;;;;;;;;;;5035597;28;20049;-87
2022/09/01 12:08:55;;;;;;;1.75;0.50;;;;;;;;;;5035502;28;20141;-86
2022/09/01 12:11:30;;;;;;;4.18;0.85;;;;;;;;;;5037638;28;20064;-87
2022/09/01 12:13:59;;;;;;;1.77;0.75;;;;;;;;;;5035022;28;20164;-87
2022/09/01 12:16:27;;;;;;;2.40;0.65;;;;;;;;;;5034879;28;20486;-90
2022/09/01 12:18:55;;;;;;;1.02;0.70;;;;;;;;;;5035309;28;20060;-88
2022/09/01 12:21:24;;;;;;;1.85;0.70;;;;;;;;;;5035129;28;20057;-88
2022/09/01 12:23:52;;;;;;;2.85;0.60;;;;;;;;;;5035260;28;20137;-87
2022/09/01 12:26:29;;;;;;;2.13;0.55;;;;;;;;;;5035190;28;20128;-86
2022/09/01 12:28:56;;;;;;;2.70;0.63;;;;;;;;;;5034811;28;20053;-87
2022/09/01 12:31:25;;;;;;;1.42;0.80;;;;;;;;;;5034998;28;20075;-89
2022/09/01 12:33:54;;;;;;;2.35;0.70;;;;;;;;;;5034897;28;20053;-88
2022/09/01 12:36:21;;;;;;;2.00;0.75;;;;;;;;;;5035087;28;20076;-90
2022/09/01 12:38:48;;;;;;;4.20;0.80;;;;;;;;;;5034961;28;20132;-89
2022/09/01 12:41:26;;;;;;;2.75;0.90;;;;;;;;;;5034979;28;20072;-88
2022/09/01 12:43:55;;;;;;;4.95;0.80;;;;;;;;;;5034744;28;20061;-89
2022/09/01 12:46:42;;;;;;;1.02;0.82;;;;;;;;;;5034725;28;20123;-86
2022/09/01 12:49:23;;;;;;;2.38;0.80;;;;;;;;;;5035009;28;20080;-87
2022/09/01 12:52:10;;;;;;;2.17;0.82;;;;;;;;;;5034651;28;20042;-85
2022/09/01 12:54:40;;;;;;;1.83;0.60;;;;;;;;;;5034145;28;20054;-89
2022/09/01 12:57:07;;;;;;;0.75;0.75;;;;;;;;;;5034572;28;20073;-87
2022/09/01 12:59:34;;;;;;;1.55;0.80;;;;;;;;;;5034947;28;20145;-86
2022/09/01 13:02:22;;;;;;;2.95;1.10;;;;;;;;;;5034623;28;20128;-87
2022/09/01 13:04:49;;;;;;;1.00;0.80;;;;;;;;;;5034572;28;20056;-87
2022/09/01 13:07:17;;;;;;;6.10;0.70;;;;;;;;;;5034571;28;20073;-88
2022/09/01 13:09:44;;;;;;;0.77;0.65;;;;;;;;;;5034744;28;20073;-87
2022/09/01 13:12:16;;;;;;;1.75;0.68;;;;;;;;;;5034335;28;20053;-87
2022/09/01 13:14:43;;;;;;;3.38;0.90;;;;;;;;;;5034014;28;20484;-85
2022/09/01 13:17:11;;;;;;;2.03;0.80;;;;;;;;;;5033980;28;20176;-89
2022/09/01 13:19:41;;;;;;;1.35;0.77;;;;;;;;;;5034144;28;20458;-85
2022/09/01 13:22:08;;;;;;;1.45;0.90;;;;;;;;;;5032657;28;20123;-87
2022/09/01 13:24:35;;;;;;;3.17;1.00;;;;;;;;;;5033919;28;20045;-87
2022/09/01 13:27:02;;;;;;;2.28;0.73;;;;;;;;;;5033986;28;20053;-88
2022/09/01 13:29:50;;;;;;;0.90;0.65;;;;;;;;;;5033861;28;20045;-88
2022/09/01 13:32:18;;;;;;;2.17;0.90;;;;;;;;;;5034102;28;20053;-86
2022/09/01 13:34:48;;;;;;;0.75;0.70;;;;;;;;;;5033882;28;20080;-85
2022/09/01 13:37:18;;;;;;;4.53;1.10;;;;;;;;;;5034003;28;20049;-87
2022/09/01 13:39:46;;;;;;;2.28;0.95;;;;;;;;;;5033848;28;20080;-87
2022/09/01 13:42:13;;;;;;;5.28;0.80;;;;;;;;;;5033863;28;20049;-86
2022/09/01 13:44:41;;;;;;;1.40;0.70;;;;;;;;;;5033517;28;20045;-87
2022/09/01 13:47:10;;;;;;;2.15;0.50;;;;;;;;;;5033528;28;20049;-88
2022/09/01 13:49:58;;;;;;;0.63;0.60;;;;;;;;;;5033516;28;20049;-89
2022/09/01 13:52:37;;;;;;;1.58;0.77;;;;;;;;;;5033449;28;20243;-88
2022/09/01 13:55:06;;;;;;;3.20;0.80;;;;;;;;;;5033215;28;20046;-87
2022/09/01 13:57:34;;;;;;;3.85;0.82;;;;;;;;;;5033683;28;20133;-88
2022/09/01 14:00:05;;;;;;;1.25;0.80;;;;;;;;;;5033424;28;20059;-88
2022/09/01 14:02:34;;;;;;;1.67;0.85;;;;;;;;;;5033452;28;20472;-87
2022/09/01 14:05:01;;;;;;;1.10;0.68;;;;;;;;;;5033135;28;20057;-91
2022/09/01 14:07:30;;;;;;;0.73;0.60;;;;;;;;;;5033540;28;20077;-86
2022/09/01 14:09:57;;;;;;;3.30;0.80;;;;;;;;;;5033501;28;20077;-86
2022/09/01 14:12:25;;;;;;;3.42;0.88;;;;;;;;;;5034408;28;20077;-87
2022/09/01 14:14:52;;;;;;;2.35;0.65;;;;;;;;;;5033030;28;20616;-87
2022/09/01 14:17:39;;;;;;;0.70;0.70;;;;;;;;;;5033057;28;20426;-88
2022/09/01 14:20:08;;;;;;;1.35;1.13;;;;;;;;;;5033264;28;20461;-88
2022/09/01 14:22:35;;;;;;;0.98;0.73;;;;;;;;;;5033290;28;20072;-89
2022/09/01 14:25:05;;;;;;;2.78;0.77;;;;;;;;;;5033129;28;20067;-87
2022/09/01 14:27:32;;;;;;;0.55;0.55;;;;;;;;;;5033033;28;20046;-87
2022/09/01 14:29:59;;;;;;;1.40;0.65;;;;;;;;;;5033048;28;20140;-88
2022/09/01 14:32:28;;;;;;;3.90;0.90;;;;;;;;;;5033029;28;20069;-89
2022/09/01 14:34:56;;;;;;;3.08;0.50;;;;;;;;;;5032651;28;20057;-87
2022/09/01 14:37:23;;;;;;;4.05;0.70;;;;;;;;;;5032875;28;20041;-88
2022/09/01 14:39:51;;;;;;;3.53;0.93;;;;;;;;;;5032492;28;20144;-86
2022/09/01 14:42:18;;;;;;;2.35;0.90;;;;;;;;;;5032661;28;20049;-88
2022/09/01 14:44:46;;;;;;;2.95;0.90;;;;;;;;;;5031989;28;20049;-86
2022/09/01 14:47:16;;;;;;;1.73;0.75;;;;;;;;;;5032436;28;20041;-86
2022/09/01 14:49:46;;;;;;;1.88;0.73;;;;;;;;;;5031624;28;20085;-88
2022/09/01 14:52:15;;;;;;;0.95;0.70;;;;;;;;;;5032579;28;20079;-87
2022/09/01 14:54:42;;;;;;;4.32;0.70;;;;;;;;;;5032704;28;20410;-89
2022/09/01 14:57:10;;;;;;;2.10;0.70;;;;;;;;;;5032593;28;20045;-90
2022/09/01 14:59:57;;;;;;;3.47;0.90;;;;;;;;;;5032687;28;20053;-89
2022/09/01 15:02:24;;;;;;;1.27;0.70;;;;;;;;;;5032522;28;20073;-88
2022/09/01 15:04:51;;;;;;;3.38;0.75;;;;;;;;;;5032776;28;20144;-88
2022/09/01 15:07:19;;;;;;;4.90;0.77;;;;;;;;;;5032910;28;20136;-91
2022/09/01 15:09:46;;;;;;;2.83;0.82;;;;;;;;;;5032457;28;20504;-85
2022/09/01 15:12:13;;;;;;;2.00;0.88;;;;;;;;;;5032451;28;20084;-88
2022/09/01 15:14:40;;;;;;;0.77;0.70;;;;;;;;;;5032104;28;20081;-86
2022/09/01 15:17:08;;;;;;;2.90;0.77;;;;;;;;;;5037066;28;20088;-86
2022/09/01 15:19:35;;;;;;;1.00;0.70;;;;;;;;;;5038932;28;20140;-87
2022/09/01 15:22:03;;;;;;;3.88;0.73;;;;;;;;;;5038826;28;20076;-87